logo
Search for airport 
image banner adimage banner adimage banner ad
image banner ad

LGKP - Karpathos

Located in , Greece

ICAO - LGKP, IATA - AOK

Data provided by Airmate  

General information

Coordinates: N35°25'16" E27°8'45"
Elevation is 66 feet MSL.
 
View others Airports in Dodecanese

Operational data

Special qualification required
Current time UTC:
Current local time:
Weather
METAR: LGKP 200620Z 22014KT 9999 FEW020 19/09 Q1006
TAF: TAF LGKP 200500Z 2006/2015 22015G25KT 9999 SCT020 PROB40 TEMPO 2006/2009 5000 RA SCT020 BKN050
View NOTAMs / SUP AIP / TFR affecting this airport [VIEW]
Communications frequencies: [VIEW]

Runways:

RWY identifierQFULength (ft)Width (ft)SurfaceLDA (ft)
12125°787098ASP
30305°787098ASP

Airport contact information

Address: Greece

Handlers

Goldair Handling

Goldair Handling

Pandair

Pandair

Skyserv Handling Services

Skyserv Handling Services
[VIEW][VIEW]
+306936093749

Satellite view of LGKP